createdAt,value
2017-02-19T00:00:26.266Z,24.48
2017-02-19T00:00:54.539Z,24.4
2017-02-19T00:01:22.775Z,24.45
2017-02-19T00:01:50.975Z,24.39
2017-02-19T00:02:19.030Z,24.46
2017-02-19T00:02:47.289Z,24.49
2017-02-19T00:03:15.407Z,24.34
2017-02-19T00:03:43.448Z,24.34
2017-02-19T00:04:11.514Z,24.32
2017-02-19T00:04:39.587Z,24.4
2017-02-19T00:05:07.542Z,24.4
2017-02-19T00:05:35.695Z,24.42
2017-02-19T00:06:03.937Z,24.36
2017-02-19T00:06:31.951Z,24.4
2017-02-19T00:07:00.157Z,24.44
2017-02-19T00:07:28.528Z,24.42
2017-02-19T00:07:56.476Z,24.45
2017-02-19T00:08:24.542Z,24.46
2017-02-19T00:08:52.823Z,24.48
2017-02-19T00:09:21.079Z,24.4
2017-02-19T00:09:49.212Z,24.46
2017-02-19T00:10:17.415Z,24.4
2017-02-19T00:10:45.557Z,24.44
2017-02-19T00:11:13.584Z,24.46
2017-02-19T00:11:41.718Z,24.4
2017-02-19T00:12:09.959Z,24.48
2017-02-19T00:12:38.184Z,24.48
2017-02-19T00:13:06.348Z,24.48
2017-02-19T00:13:34.486Z,24.48
2017-02-19T00:14:02.617Z,24.48
2017-02-19T00:14:30.808Z,24.48
2017-02-19T00:14:58.750Z,24.55
2017-02-19T00:15:27.000Z,24.51
2017-02-19T00:15:55.167Z,24.52
2017-02-19T00:16:23.397Z,24.48
2017-02-19T00:16:51.576Z,24.54
2017-02-19T00:17:19.802Z,24.48
2017-02-19T00:17:48.126Z,24.51
2017-02-19T00:18:16.317Z,24.49
2017-02-19T00:18:44.641Z,24.4
2017-02-19T00:19:12.852Z,24.49
2017-02-19T00:19:41.085Z,24.42
2017-02-19T00:20:09.182Z,24.45
2017-02-19T00:20:37.393Z,24.45
2017-02-19T00:21:05.531Z,24.58
2017-02-19T00:21:33.656Z,24.48
2017-02-19T00:22:01.896Z,24.44
2017-02-19T00:22:30.160Z,24.54
2017-02-19T00:22:58.277Z,24.49
2017-02-19T00:23:26.295Z,24.4
2017-02-19T00:23:54.387Z,24.4
2017-02-19T00:24:22.331Z,24.36
2017-02-19T00:24:50.584Z,24.51
2017-02-19T00:25:18.835Z,24.44
2017-02-19T00:25:47.104Z,24.46
2017-02-19T00:26:15.236Z,24.44
2017-02-19T00:26:43.416Z,24.48
2017-02-19T00:27:11.619Z,24.48
2017-02-19T00:27:39.975Z,24.52
2017-02-19T00:28:08.024Z,24.49
2017-02-19T00:28:36.157Z,24.49
2017-02-19T00:29:04.316Z,24.48
2017-02-19T00:29:32.409Z,24.56
2017-02-19T00:30:00.698Z,24.48
2017-02-19T00:30:28.722Z,24.54
2017-02-19T00:30:56.646Z,24.51
2017-02-19T00:31:24.632Z,24.49
2017-02-19T00:31:52.772Z,24.51
2017-02-19T00:32:20.798Z,24.58
2017-02-19T00:32:49.127Z,24.52
2017-02-19T00:33:17.181Z,24.55
2017-02-19T00:33:45.299Z,24.51
2017-02-19T00:34:13.449Z,24.58
2017-02-19T00:34:41.666Z,24.54
2017-02-19T00:35:09.770Z,24.52
2017-02-19T00:35:37.841Z,24.54
2017-02-19T00:36:05.898Z,24.54
2017-02-19T00:36:34.000Z,24.61
2017-02-19T00:37:01.952Z,24.55
2017-02-19T00:37:30.222Z,24.58
2017-02-19T00:37:58.509Z,24.46
2017-02-19T00:38:26.620Z,24.54
2017-02-19T00:38:54.819Z,24.45
2017-02-19T00:39:22.932Z,24.49
2017-02-19T00:39:50.986Z,24.39
2017-02-19T00:40:19.193Z,24.49
2017-02-19T00:40:47.304Z,24.46
2017-02-19T00:41:15.340Z,24.46
2017-02-19T00:41:43.423Z,24.36
2017-02-19T00:42:11.683Z,24.46
2017-02-19T00:42:39.933Z,24.46
2017-02-19T00:43:07.976Z,24.45
2017-02-19T00:43:36.037Z,24.49
2017-02-19T00:44:04.229Z,24.4
2017-02-19T00:44:32.425Z,24.48
2017-02-19T00:45:00.538Z,24.42
2017-02-19T00:45:28.624Z,24.44
2017-02-19T00:45:56.676Z,24.37
2017-02-19T00:46:24.752Z,24.4
2017-02-19T00:46:52.700Z,24.45
2017-02-19T00:47:20.831Z,24.45
2017-02-19T00:47:48.936Z,24.44
2017-02-19T00:48:17.048Z,24.37
2017-02-19T00:48:45.072Z,24.32
2017-02-19T00:49:13.231Z,24.33
2017-02-19T00:49:41.466Z,24.4
2017-02-19T00:50:09.584Z,24.29
2017-02-19T00:50:37.725Z,24.27
2017-02-19T00:51:05.975Z,24.34
2017-02-19T00:51:34.197Z,24.29
2017-02-19T00:52:02.349Z,24.3
2017-02-19T00:52:30.464Z,24.27
2017-02-19T00:52:58.560Z,24.3
2017-02-19T00:53:26.793Z,24.24
2017-02-19T00:53:54.793Z,24.29
2017-02-19T00:54:22.802Z,24.33
2017-02-19T00:54:50.860Z,24.3
2017-02-19T00:55:19.018Z,24.37
2017-02-19T00:55:47.147Z,24.4
2017-02-19T00:56:15.383Z,24.4
2017-02-19T00:56:43.476Z,24.29
2017-02-19T00:57:11.503Z,24.27
2017-02-19T00:57:39.648Z,24.4
2017-02-19T00:58:07.999Z,24.32
2017-02-19T00:58:36.191Z,24.4
2017-02-19T00:59:04.382Z,24.36
2017-02-19T00:59:32.509Z,24.42
2017-02-19T01:00:00.735Z,24.39
2017-02-19T01:00:28.832Z,24.37
2017-02-19T01:00:56.876Z,24.37
2017-02-19T01:01:24.997Z,24.45
2017-02-19T01:01:53.041Z,24.4
2017-02-19T01:02:21.216Z,24.48
2017-02-19T01:02:49.257Z,24.44
2017-02-19T01:03:17.202Z,24.44
2017-02-19T01:03:45.391Z,24.46
2017-02-19T01:04:13.646Z,24.46
2017-02-19T01:04:41.866Z,24.46
2017-02-19T01:05:09.908Z,24.44
2017-02-19T01:05:37.897Z,24.42
2017-02-19T01:06:06.079Z,24.44
2017-02-19T01:06:34.209Z,24.34
2017-02-19T01:07:02.370Z,24.34
2017-02-19T01:07:30.559Z,24.33
2017-02-19T01:07:58.767Z,24.3
2017-02-19T01:08:26.879Z,24.34
2017-02-19T01:08:54.955Z,24.33
2017-02-19T01:09:23.014Z,24.21
2017-02-19T01:09:51.242Z,24.19
2017-02-19T01:10:19.356Z,24.19
2017-02-19T01:10:47.455Z,24.19
2017-02-19T01:11:15.625Z,24.21
2017-02-19T01:11:43.750Z,24.14
2017-02-19T01:12:11.913Z,24.17
2017-02-19T01:12:39.941Z,24.12
2017-02-19T01:13:08.310Z,24.15
2017-02-19T01:13:36.393Z,24.15
2017-02-19T01:14:04.528Z,24.12
2017-02-19T01:14:32.620Z,24.17
2017-02-19T01:15:00.658Z,24.18
2017-02-19T01:15:28.748Z,24.19
2017-02-19T01:15:56.914Z,24.19
2017-02-19T01:16:25.011Z,24.15
2017-02-19T01:16:53.154Z,24.3
2017-02-19T01:17:21.350Z,24.24
2017-02-19T01:17:49.544Z,24.17
2017-02-19T01:18:17.665Z,24.24
2017-02-19T01:18:45.780Z,24.33
2017-02-19T01:19:13.783Z,24.27
2017-02-19T01:19:42.083Z,24.34
2017-02-19T01:20:10.260Z,24.32
2017-02-19T01:20:38.459Z,24.27
2017-02-19T01:21:06.574Z,24.19
2017-02-19T01:21:34.882Z,24.26
2017-02-19T01:22:03.083Z,24.24
2017-02-19T01:22:31.016Z,24.29
2017-02-19T01:22:59.401Z,24.24
2017-02-19T01:23:27.562Z,24.19
2017-02-19T01:23:55.856Z,24.21
2017-02-19T01:24:23.935Z,24.24
2017-02-19T01:24:52.049Z,24.33
2017-02-19T01:25:20.082Z,24.24
2017-02-19T01:25:48.126Z,24.22
2017-02-19T01:26:16.172Z,24.32
2017-02-19T01:26:44.437Z,24.29
2017-02-19T01:27:12.689Z,24.33
2017-02-19T01:27:40.850Z,24.24
2017-02-19T01:28:09.040Z,24.32
2017-02-19T01:28:37.146Z,24.34
2017-02-19T01:29:05.418Z,24.33
2017-02-19T01:29:33.603Z,24.34
2017-02-19T01:30:01.750Z,24.42
2017-02-19T01:30:29.928Z,24.3
2017-02-19T01:30:58.001Z,24.4
2017-02-19T01:31:26.146Z,24.39
2017-02-19T01:31:54.168Z,24.44
2017-02-19T01:32:22.279Z,24.44
2017-02-19T01:32:50.435Z,24.4
2017-02-19T01:33:18.747Z,24.48
2017-02-19T01:33:46.873Z,24.4
2017-02-19T01:34:14.996Z,24.44
2017-02-19T01:34:43.130Z,24.48
2017-02-19T01:35:11.249Z,24.48
2017-02-19T01:35:39.467Z,24.44
2017-02-19T01:36:07.496Z,24.44
2017-02-19T01:36:35.555Z,24.45
2017-02-19T01:37:03.797Z,24.45
2017-02-19T01:37:31.897Z,24.48
2017-02-19T01:38:00.013Z,24.4
2017-02-19T01:38:28.185Z,24.54
2017-02-19T01:38:56.259Z,24.44
2017-02-19T01:39:24.385Z,24.54
2017-02-19T01:39:52.412Z,24.52
2017-02-19T01:40:20.620Z,24.49
2017-02-19T01:40:48.648Z,24.46
2017-02-19T01:41:16.855Z,24.54
2017-02-19T01:41:45.168Z,24.52
2017-02-19T01:42:13.235Z,24.52
2017-02-19T01:42:41.355Z,24.54
2017-02-19T01:43:09.563Z,24.63
2017-02-19T01:43:37.644Z,24.61
2017-02-19T01:44:05.823Z,24.58
2017-02-19T01:44:34.216Z,24.61
2017-02-19T01:45:02.371Z,24.63
2017-02-19T01:45:30.403Z,24.66
2017-02-19T01:45:58.429Z,24.59
2017-02-19T01:46:26.610Z,24.61
2017-02-19T01:46:54.673Z,24.61
2017-02-19T01:47:22.887Z,24.67
2017-02-19T01:47:51.119Z,24.64
2017-02-19T01:48:19.386Z,24.66
2017-02-19T01:48:47.603Z,24.64
2017-02-19T01:49:15.737Z,24.61
2017-02-19T01:49:43.840Z,24.66
2017-02-19T01:50:12.081Z,24.64
2017-02-19T01:50:40.224Z,24.59
2017-02-19T01:51:08.413Z,24.67
2017-02-19T01:51:36.509Z,24.52
2017-02-19T01:52:04.644Z,24.59
2017-02-19T01:52:32.695Z,24.55
2017-02-19T01:53:01.259Z,24.54
2017-02-19T01:53:30.068Z,24.51
2017-02-19T01:53:58.131Z,24.48
2017-02-19T01:54:26.160Z,24.49
2017-02-19T01:54:54.417Z,24.39
2017-02-19T01:55:22.471Z,24.45
2017-02-19T01:55:50.688Z,24.4
2017-02-19T01:56:18.836Z,24.42
2017-02-19T01:56:46.815Z,24.39
2017-02-19T01:57:14.824Z,24.36
2017-02-19T01:57:43.426Z,24.32
2017-02-19T01:58:11.687Z,24.44
2017-02-19T01:58:39.939Z,24.33
2017-02-19T01:59:08.259Z,24.3
2017-02-19T01:59:36.370Z,24.3
2017-02-19T02:00:04.475Z,24.27
2017-02-19T02:00:32.624Z,24.27
2017-02-19T02:01:00.712Z,24.3
2017-02-19T02:01:28.788Z,24.32
2017-02-19T02:01:56.903Z,24.17
2017-02-19T02:02:25.141Z,24.19
2017-02-19T02:02:53.398Z,24.24
2017-02-19T02:03:21.531Z,24.21
2017-02-19T02:03:49.607Z,24.17
2017-02-19T02:04:17.707Z,24.18
2017-02-19T02:04:45.813Z,24.17
2017-02-19T02:05:13.940Z,24.18
2017-02-19T02:05:41.961Z,24.18
2017-02-19T02:06:09.922Z,24.18
2017-02-19T02:06:38.068Z,24.14
2017-02-19T02:07:05.993Z,24.12
2017-02-19T02:07:34.048Z,24.17
2017-02-19T02:08:02.534Z,24.12
2017-02-19T02:08:30.750Z,24.11
2017-02-19T02:08:58.912Z,24.15
2017-02-19T02:09:27.082Z,24.07
2017-02-19T02:09:55.181Z,24.11
2017-02-19T02:10:23.264Z,24.11
2017-02-19T02:10:51.473Z,23.99
2017-02-19T02:11:19.678Z,24.02
2017-02-19T02:11:47.661Z,24.07
2017-02-19T02:12:15.875Z,24.04
2017-02-19T02:12:43.963Z,24.03
2017-02-19T02:13:12.110Z,24.03
2017-02-19T02:13:40.196Z,24.02
2017-02-19T02:14:08.175Z,24.07
2017-02-19T02:14:36.227Z,23.97
2017-02-19T02:15:04.365Z,24.09
2017-02-19T02:15:32.533Z,23.99
2017-02-19T02:16:00.612Z,24
2017-02-19T02:16:28.790Z,24.08
2017-02-19T02:16:57.022Z,24.08
2017-02-19T02:17:25.234Z,24.07
2017-02-19T02:17:53.521Z,24.03
2017-02-19T02:18:21.608Z,23.97
2017-02-19T02:18:49.841Z,24
2017-02-19T02:19:17.981Z,24.02
2017-02-19T02:19:46.109Z,23.96
2017-02-19T02:20:14.251Z,23.99
2017-02-19T02:20:42.522Z,23.9
2017-02-19T02:21:10.891Z,23.9
2017-02-19T02:21:39.078Z,23.94
2017-02-19T02:22:07.216Z,23.92
2017-02-19T02:22:35.432Z,23.84
2017-02-19T02:23:03.590Z,23.82
2017-02-19T02:23:31.873Z,23.82
2017-02-19T02:23:59.882Z,23.67
2017-02-19T02:24:28.141Z,23.78
2017-02-19T02:24:56.422Z,23.71
2017-02-19T02:25:24.408Z,23.71
2017-02-19T02:25:52.673Z,23.7
2017-02-19T02:26:20.753Z,23.59
2017-02-19T02:26:49.021Z,23.52
2017-02-19T02:27:17.196Z,23.55
2017-02-19T02:27:45.387Z,23.63
2017-02-19T02:28:13.584Z,23.53
2017-02-19T02:28:41.867Z,23.48
2017-02-19T02:29:09.852Z,23.57
2017-02-19T02:29:38.005Z,23.56
2017-02-19T02:30:06.108Z,23.56
2017-02-19T02:30:34.223Z,23.44
2017-02-19T02:31:02.294Z,23.41
2017-02-19T02:31:30.280Z,23.38
2017-02-19T02:31:58.470Z,23.38
2017-02-19T02:32:26.571Z,23.44
2017-02-19T02:32:54.705Z,23.42
2017-02-19T02:33:22.901Z,23.41
2017-02-19T02:33:51.218Z,23.44
2017-02-19T02:34:19.376Z,23.44
2017-02-19T02:34:47.516Z,23.37
2017-02-19T02:35:15.755Z,23.37
2017-02-19T02:35:43.858Z,23.4
2017-02-19T02:36:11.921Z,23.42
2017-02-19T02:36:40.141Z,23.42
2017-02-19T02:37:08.340Z,23.45
2017-02-19T02:37:36.495Z,23.42
2017-02-19T02:38:04.772Z,23.42
2017-02-19T02:38:32.875Z,23.4
2017-02-19T02:39:00.949Z,23.45
2017-02-19T02:39:28.978Z,23.41
2017-02-19T02:39:57.019Z,23.44
2017-02-19T02:40:25.239Z,23.41
2017-02-19T02:40:53.456Z,23.47
2017-02-19T02:41:21.614Z,23.45
2017-02-19T02:41:49.691Z,23.4
2017-02-19T02:42:17.713Z,23.44
2017-02-19T02:42:45.938Z,23.42
2017-02-19T02:43:14.116Z,23.4
2017-02-19T02:43:42.346Z,23.38
2017-02-19T02:44:10.391Z,23.34
2017-02-19T02:44:38.583Z,23.26
2017-02-19T02:45:06.603Z,23.29
2017-02-19T02:45:34.627Z,23.34
2017-02-19T02:46:02.735Z,23.26
2017-02-19T02:46:30.916Z,23.38
2017-02-19T02:46:59.188Z,23.26
2017-02-19T02:47:27.274Z,23.22
2017-02-19T02:47:55.450Z,23.35
2017-02-19T02:48:23.479Z,23.29
2017-02-19T02:48:51.734Z,23.24
2017-02-19T02:49:19.881Z,23.29
2017-02-19T02:49:48.035Z,23.22
2017-02-19T02:50:16.097Z,23.21
2017-02-19T02:50:44.441Z,23.21
2017-02-19T02:51:12.670Z,23.16
2017-02-19T02:51:40.887Z,23.15
2017-02-19T02:52:09.126Z,23.24
2017-02-19T02:52:37.157Z,23.12
2017-02-19T02:53:05.297Z,23.12
2017-02-19T02:53:33.234Z,23.12
2017-02-19T02:54:01.507Z,23.15
2017-02-19T02:54:29.743Z,23.15
2017-02-19T02:54:57.781Z,23.16
2017-02-19T02:55:25.875Z,23.09
2017-02-19T02:55:54.030Z,23.07
2017-02-19T02:56:21.930Z,23.07
2017-02-19T02:56:49.962Z,23.03
2017-02-19T02:57:18.263Z,22.97
2017-02-19T02:57:46.379Z,22.96
2017-02-19T02:58:14.580Z,23
2017-02-19T02:58:42.755Z,23.04
2017-02-19T02:59:11.134Z,23.01
2017-02-19T02:59:39.352Z,23.06
2017-02-19T03:00:07.446Z,23.06
2017-02-19T03:00:35.802Z,22.97
2017-02-19T03:01:04.050Z,23.03
2017-02-19T03:01:32.106Z,22.97
2017-02-19T03:02:00.018Z,22.92
2017-02-19T03:02:28.206Z,22.82
2017-02-19T03:02:56.430Z,22.84
2017-02-19T03:03:24.592Z,22.85
2017-02-19T03:03:53.214Z,22.92
2017-02-19T03:04:21.336Z,22.86
2017-02-19T03:04:49.566Z,22.88
2017-02-19T03:05:17.728Z,22.85
2017-02-19T03:05:45.860Z,22.85
2017-02-19T03:06:13.996Z,22.89
2017-02-19T03:06:42.138Z,22.81
2017-02-19T03:07:10.219Z,22.79
2017-02-19T03:07:38.520Z,22.76
2017-02-19T03:08:06.807Z,22.7
2017-02-19T03:08:35.009Z,22.75
2017-02-19T03:09:03.226Z,22.76
2017-02-19T03:09:31.468Z,22.7
2017-02-19T03:09:59.719Z,22.66
2017-02-19T03:10:27.894Z,22.61
2017-02-19T03:10:55.998Z,22.69
2017-02-19T03:11:24.380Z,22.7
2017-02-19T03:11:52.528Z,22.7
2017-02-19T03:12:20.736Z,22.7
2017-02-19T03:12:49.035Z,22.75
2017-02-19T03:13:17.159Z,22.67
2017-02-19T03:13:45.184Z,22.63
2017-02-19T03:14:13.440Z,22.7
2017-02-19T03:14:41.697Z,22.67
2017-02-19T03:15:09.837Z,22.67
2017-02-19T03:15:38.103Z,22.64
2017-02-19T03:16:06.217Z,22.6
2017-02-19T03:16:34.284Z,22.6
2017-02-19T03:17:02.399Z,22.6
2017-02-19T03:17:30.561Z,22.55
2017-02-19T03:17:58.780Z,22.52
2017-02-19T03:18:27.026Z,22.52
2017-02-19T03:18:55.264Z,22.6
2017-02-19T03:19:23.810Z,22.6
2017-02-19T03:19:51.997Z,22.51
2017-02-19T03:20:20.022Z,22.49
2017-02-19T03:20:48.409Z,22.52
2017-02-19T03:21:16.347Z,22.49
2017-02-19T03:21:44.497Z,22.46
2017-02-19T03:22:12.871Z,22.49
2017-02-19T03:22:41.283Z,22.57
2017-02-19T03:23:09.451Z,22.48
2017-02-19T03:23:37.534Z,22.42
2017-02-19T03:24:05.721Z,22.46
2017-02-19T03:24:33.869Z,22.45
2017-02-19T03:25:02.085Z,22.38
2017-02-19T03:25:30.547Z,22.38
2017-02-19T03:25:58.827Z,22.41
2017-02-19T03:26:26.770Z,22.39
2017-02-19T03:26:54.949Z,22.36
2017-02-19T03:27:23.085Z,22.41
2017-02-19T03:27:51.124Z,22.34
2017-02-19T03:28:19.228Z,22.31
2017-02-19T03:28:47.448Z,22.34
2017-02-19T03:29:15.753Z,22.39
2017-02-19T03:29:43.803Z,22.22
2017-02-19T03:30:12.020Z,22.23
2017-02-19T03:30:40.242Z,22.26
2017-02-19T03:31:08.378Z,22.26
2017-02-19T03:31:36.335Z,22.27
2017-02-19T03:32:04.612Z,22.22
2017-02-19T03:32:32.623Z,22.26
2017-02-19T03:33:00.803Z,22.24
2017-02-19T03:33:28.895Z,22.16
2017-02-19T03:33:57.388Z,22.16
2017-02-19T03:34:25.719Z,22.18
2017-02-19T03:34:53.779Z,22.24
2017-02-19T03:35:21.882Z,22.14
2017-02-19T03:35:50.052Z,22.2
2017-02-19T03:36:18.146Z,22.16
2017-02-19T03:36:46.268Z,22.18
2017-02-19T03:37:14.282Z,22.18
2017-02-19T03:37:42.491Z,22.15
2017-02-19T03:38:10.554Z,22.2
2017-02-19T03:38:38.725Z,22.15
2017-02-19T03:39:06.779Z,22.16
2017-02-19T03:39:34.988Z,22.12
2017-02-19T03:40:03.141Z,22.15
2017-02-19T03:40:31.188Z,22.11
2017-02-19T03:40:59.426Z,22.14
2017-02-19T03:41:27.566Z,22.12
2017-02-19T03:41:55.990Z,22.11
2017-02-19T03:42:24.211Z,22.14
2017-02-19T03:42:52.468Z,22.2
2017-02-19T03:43:20.667Z,22.15
2017-02-19T03:43:48.822Z,22.14
2017-02-19T03:44:17.246Z,22.02
2017-02-19T03:44:45.301Z,22.11
2017-02-19T03:45:13.551Z,22
2017-02-19T03:45:41.686Z,22.08
2017-02-19T03:46:09.931Z,22.02
2017-02-19T03:46:37.983Z,21.96
2017-02-19T03:47:06.150Z,22.05
2017-02-19T03:47:34.281Z,21.99
2017-02-19T03:48:02.453Z,22.02
2017-02-19T03:48:30.466Z,21.97
2017-02-19T03:48:58.362Z,21.99
2017-02-19T03:49:26.572Z,21.99
2017-02-19T03:49:54.616Z,22
2017-02-19T03:50:22.518Z,22
2017-02-19T03:50:50.513Z,22.08
2017-02-19T03:51:18.755Z,22
2017-02-19T03:51:46.797Z,22
2017-02-19T03:52:14.967Z,21.97
2017-02-19T03:52:43.008Z,21.96
2017-02-19T03:53:11.088Z,22.02
2017-02-19T03:53:39.296Z,21.99
2017-02-19T03:54:07.429Z,22.08
2017-02-19T03:54:35.793Z,22.02
2017-02-19T03:55:03.929Z,22.05
2017-02-19T03:55:31.847Z,21.99
2017-02-19T03:55:59.980Z,22.05
2017-02-19T03:56:28.118Z,22
2017-02-19T03:56:56.294Z,21.97
2017-02-19T03:57:24.521Z,22.02
2017-02-19T03:57:52.714Z,22.02
2017-02-19T03:58:20.771Z,22.02
2017-02-19T03:58:48.838Z,21.99
2017-02-19T03:59:16.998Z,21.97
2017-02-19T03:59:45.392Z,22
2017-02-19T04:00:13.615Z,21.94
2017-02-19T04:00:41.573Z,21.99
2017-02-19T04:01:09.671Z,22.04
2017-02-19T04:01:37.889Z,21.96
2017-02-19T04:02:06.146Z,21.99
2017-02-19T04:02:34.358Z,22.02
2017-02-19T04:03:02.457Z,22
2017-02-19T04:03:30.663Z,21.99
2017-02-19T04:03:58.728Z,22.04
2017-02-19T04:04:26.930Z,22.04
2017-02-19T04:04:55.189Z,21.94
2017-02-19T04:05:23.430Z,21.96
2017-02-19T04:05:51.673Z,22.04
2017-02-19T04:06:19.817Z,21.94
2017-02-19T04:06:47.833Z,21.96
2017-02-19T04:07:16.012Z,21.99
2017-02-19T04:07:44.184Z,21.97
2017-02-19T04:08:12.109Z,21.99
2017-02-19T04:08:40.392Z,21.94
2017-02-19T04:09:08.533Z,21.94
2017-02-19T04:09:36.783Z,21.93
2017-02-19T04:10:04.676Z,21.94
2017-02-19T04:10:32.880Z,22.04
2017-02-19T04:11:01.013Z,21.96
2017-02-19T04:11:29.244Z,21.94
2017-02-19T04:11:57.386Z,21.93
2017-02-19T04:12:25.494Z,21.99
2017-02-19T04:12:53.780Z,22.02
2017-02-19T04:13:21.883Z,21.94
2017-02-19T04:13:50.128Z,21.92
2017-02-19T04:14:18.331Z,21.97
2017-02-19T04:14:46.668Z,22
2017-02-19T04:15:14.804Z,21.89
2017-02-19T04:15:42.992Z,21.93
2017-02-19T04:16:11.199Z,21.83
2017-02-19T04:16:39.350Z,21.9
2017-02-19T04:17:07.481Z,21.9
2017-02-19T04:17:35.651Z,21.82
2017-02-19T04:18:03.871Z,21.8
2017-02-19T04:18:32.053Z,21.8
2017-02-19T04:19:00.209Z,21.8
2017-02-19T04:19:28.409Z,21.7
2017-02-19T04:19:56.696Z,21.71
2017-02-19T04:20:24.718Z,21.71
2017-02-19T04:20:52.723Z,21.67
2017-02-19T04:21:20.989Z,21.76
2017-02-19T04:21:49.159Z,21.76
2017-02-19T04:22:17.336Z,21.71
2017-02-19T04:22:45.341Z,21.73
2017-02-19T04:23:13.593Z,21.67
2017-02-19T04:23:41.835Z,21.68
2017-02-19T04:24:10.033Z,21.76
2017-02-19T04:24:38.121Z,21.68
2017-02-19T04:25:06.557Z,21.59
2017-02-19T04:25:34.768Z,21.67
2017-02-19T04:26:03.289Z,21.68
2017-02-19T04:26:31.402Z,21.7
2017-02-19T04:26:59.657Z,21.67
2017-02-19T04:27:27.897Z,21.59
2017-02-19T04:27:56.133Z,21.68
2017-02-19T04:28:24.166Z,21.64
2017-02-19T04:28:52.213Z,21.61
2017-02-19T04:29:20.583Z,21.66
2017-02-19T04:29:48.850Z,21.58
2017-02-19T04:30:16.855Z,21.68
2017-02-19T04:30:44.969Z,21.53
2017-02-19T04:31:13.131Z,21.59
2017-02-19T04:31:41.296Z,21.68
2017-02-19T04:32:09.505Z,21.59
2017-02-19T04:32:37.639Z,21.62
2017-02-19T04:33:05.896Z,21.59
2017-02-19T04:33:34.034Z,21.64
2017-02-19T04:34:02.321Z,21.51
2017-02-19T04:34:30.399Z,21.62
2017-02-19T04:34:58.732Z,21.62
2017-02-19T04:35:26.920Z,21.52
2017-02-19T04:35:55.253Z,21.51
2017-02-19T04:36:23.371Z,21.55
2017-02-19T04:36:51.568Z,21.53
2017-02-19T04:37:19.729Z,21.49
2017-02-19T04:37:47.872Z,21.51
2017-02-19T04:38:15.992Z,21.51
2017-02-19T04:38:44.158Z,21.41
2017-02-19T04:39:12.402Z,21.48
2017-02-19T04:39:40.512Z,21.46
2017-02-19T04:40:08.810Z,21.41
2017-02-19T04:40:37.042Z,21.38
2017-02-19T04:41:05.230Z,21.45
2017-02-19T04:41:33.367Z,21.38
2017-02-19T04:42:01.634Z,21.43
2017-02-19T04:42:29.790Z,21.48
2017-02-19T04:42:57.890Z,21.4
2017-02-19T04:43:25.696Z,21.48
2017-02-19T04:43:53.923Z,21.45
2017-02-19T04:44:21.966Z,21.41
2017-02-19T04:44:50.089Z,21.49
2017-02-19T04:45:18.454Z,21.43
2017-02-19T04:45:46.696Z,21.45
2017-02-19T04:46:15.017Z,21.46
2017-02-19T04:46:43.261Z,21.49
2017-02-19T04:47:11.411Z,21.43
2017-02-19T04:47:39.564Z,21.45
2017-02-19T04:48:07.731Z,21.46
2017-02-19T04:48:35.793Z,21.45
2017-02-19T04:49:03.900Z,21.51
2017-02-19T04:49:32.070Z,21.38
2017-02-19T04:50:00.581Z,21.48
2017-02-19T04:50:28.649Z,21.43
2017-02-19T04:50:56.788Z,21.4
2017-02-19T04:51:25.012Z,21.41
2017-02-19T04:51:52.967Z,21.38
2017-02-19T04:52:21.080Z,21.41
2017-02-19T04:52:49.287Z,21.33
2017-02-19T04:53:17.387Z,21.41
2017-02-19T04:53:45.620Z,21.34
2017-02-19T04:54:13.680Z,21.38
2017-02-19T04:54:41.800Z,21.3
2017-02-19T04:55:10.045Z,21.27
2017-02-19T04:55:38.210Z,21.37
2017-02-19T04:56:06.456Z,21.33
2017-02-19T04:56:34.642Z,21.28
2017-02-19T04:57:02.764Z,21.28
2017-02-19T04:57:30.910Z,21.28
2017-02-19T04:57:58.977Z,21.25
2017-02-19T04:58:27.194Z,21.36
2017-02-19T04:58:55.278Z,21.28
2017-02-19T04:59:23.552Z,21.25
2017-02-19T04:59:51.735Z,21.3
2017-02-19T05:00:20.219Z,21.33
2017-02-19T05:00:48.327Z,21.3
2017-02-19T05:01:16.534Z,21.36
2017-02-19T05:01:44.758Z,21.34
2017-02-19T05:02:12.835Z,21.34
2017-02-19T05:02:41.090Z,21.37
2017-02-19T05:03:09.210Z,21.37
2017-02-19T05:03:37.424Z,21.4
2017-02-19T05:04:05.633Z,21.37
2017-02-19T05:04:33.760Z,21.38
2017-02-19T05:05:01.966Z,21.33
2017-02-19T05:05:30.112Z,21.37
2017-02-19T05:05:58.040Z,21.3
2017-02-19T05:06:26.142Z,21.37
2017-02-19T05:06:54.384Z,21.37
2017-02-19T05:07:22.685Z,21.38
2017-02-19T05:07:50.887Z,21.33
2017-02-19T05:08:18.979Z,21.41
2017-02-19T05:08:46.875Z,21.34
2017-02-19T05:09:15.040Z,21.37
2017-02-19T05:09:43.293Z,21.37
2017-02-19T05:10:11.564Z,21.3
2017-02-19T05:10:39.737Z,21.27
2017-02-19T05:11:07.834Z,21.25
2017-02-19T05:11:35.960Z,21.3
2017-02-19T05:12:04.015Z,21.3
2017-02-19T05:12:32.198Z,21.36
2017-02-19T05:13:00.241Z,21.25
2017-02-19T05:13:28.457Z,21.33
2017-02-19T05:13:56.567Z,21.37
2017-02-19T05:14:24.723Z,21.28
2017-02-19T05:14:52.694Z,21.38
2017-02-19T05:15:21.106Z,21.37
2017-02-19T05:15:49.173Z,21.33
2017-02-19T05:16:17.346Z,21.4
2017-02-19T05:16:45.509Z,21.38
2017-02-19T05:17:13.724Z,21.45
2017-02-19T05:17:41.928Z,21.38
2017-02-19T05:18:10.152Z,21.43
2017-02-19T05:18:38.315Z,21.41
2017-02-19T05:19:06.478Z,21.45
2017-02-19T05:19:34.697Z,21.43
2017-02-19T05:20:02.919Z,21.41
2017-02-19T05:20:31.228Z,21.4
2017-02-19T05:20:59.447Z,21.43
2017-02-19T05:21:27.633Z,21.43
2017-02-19T05:21:55.922Z,21.45
2017-02-19T05:22:24.113Z,21.38
2017-02-19T05:22:52.102Z,21.49
2017-02-19T05:23:20.304Z,21.38
2017-02-19T05:23:48.406Z,21.45
2017-02-19T05:24:16.644Z,21.43
2017-02-19T05:24:44.794Z,21.43
2017-02-19T05:25:13.013Z,21.37
2017-02-19T05:25:41.128Z,21.38
2017-02-19T05:26:09.344Z,21.38
2017-02-19T05:26:37.445Z,21.38
2017-02-19T05:27:05.580Z,21.4
2017-02-19T05:27:33.673Z,21.34
2017-02-19T05:28:01.881Z,21.27
2017-02-19T05:28:30.240Z,21.3
2017-02-19T05:28:58.473Z,21.33
2017-02-19T05:29:26.613Z,21.33
2017-02-19T05:29:54.687Z,21.22
2017-02-19T05:30:22.841Z,21.22
2017-02-19T05:30:51.031Z,21.25
2017-02-19T05:31:19.203Z,21.19
2017-02-19T05:31:47.366Z,21.23
2017-02-19T05:32:15.573Z,21.15
2017-02-19T05:32:43.727Z,21.13
2017-02-19T05:33:11.835Z,21.15
2017-02-19T05:33:39.979Z,21.21
2017-02-19T05:34:08.101Z,21.16
2017-02-19T05:34:36.252Z,21.16
2017-02-19T05:35:04.283Z,21.15
2017-02-19T05:35:32.450Z,21.13
2017-02-19T05:36:00.482Z,21.15
2017-02-19T05:36:28.531Z,21.11
2017-02-19T05:36:56.703Z,21.15
2017-02-19T05:37:24.779Z,21.21
2017-02-19T05:37:52.863Z,21.15
2017-02-19T05:38:20.897Z,21.11
2017-02-19T05:38:49.197Z,21.13
2017-02-19T05:39:17.272Z,21.16
2017-02-19T05:39:45.398Z,21.22
2017-02-19T05:40:13.579Z,21.13
2017-02-19T05:40:41.919Z,21.12
2017-02-19T05:41:10.142Z,21.16
2017-02-19T05:41:38.267Z,21.31
2017-02-19T05:42:06.479Z,21.25
2017-02-19T05:42:34.596Z,21.31
2017-02-19T05:43:02.594Z,21.33
2017-02-19T05:43:30.808Z,21.27
2017-02-19T05:43:59.017Z,21.34
2017-02-19T05:44:27.131Z,21.36
2017-02-19T05:44:55.375Z,21.33
2017-02-19T05:45:23.612Z,21.36
2017-02-19T05:45:51.795Z,21.38
2017-02-19T05:46:19.940Z,21.4
2017-02-19T05:46:48.403Z,21.36
2017-02-19T05:47:16.435Z,21.41
2017-02-19T05:47:44.638Z,21.45
2017-02-19T05:48:12.731Z,21.43
2017-02-19T05:48:40.850Z,21.38
2017-02-19T05:49:09.055Z,21.41
2017-02-19T05:49:37.413Z,21.41
2017-02-19T05:50:05.626Z,21.48
2017-02-19T05:50:33.824Z,21.41
2017-02-19T05:51:02.014Z,21.41
2017-02-19T05:51:30.184Z,21.4
2017-02-19T05:51:58.398Z,21.45
2017-02-19T05:52:26.631Z,21.43
2017-02-19T05:52:54.938Z,21.45
2017-02-19T05:53:23.204Z,21.43
2017-02-19T05:53:51.307Z,21.49
2017-02-19T05:54:19.498Z,21.51
2017-02-19T05:54:47.638Z,21.46
2017-02-19T05:55:15.840Z,21.4
2017-02-19T05:55:44.325Z,21.41
2017-02-19T05:56:12.476Z,21.41
2017-02-19T05:56:40.498Z,21.46
2017-02-19T05:57:08.819Z,21.4
2017-02-19T05:57:37.050Z,21.4
2017-02-19T05:58:05.122Z,21.43
2017-02-19T05:58:33.170Z,21.43
2017-02-19T05:59:01.252Z,21.38
2017-02-19T05:59:29.473Z,21.36
2017-02-19T05:59:57.643Z,21.36
2017-02-19T06:00:25.808Z,21.36
2017-02-19T06:00:53.950Z,21.45
2017-02-19T06:01:22.125Z,21.4
2017-02-19T06:01:50.238Z,21.33
2017-02-19T06:02:18.181Z,21.33
2017-02-19T06:02:46.315Z,21.27
2017-02-19T06:03:14.431Z,21.28
2017-02-19T06:03:42.652Z,21.31
2017-02-19T06:04:10.775Z,21.19
2017-02-19T06:04:38.978Z,21.3